Time;durP1;ratioP1;P1;durP2;ratioP2;P2;SDS_P1;SDS_P2;PMS_P1;PMS_P2;Temp;Humidity;BMP_temperature;BMP_pressure;BME280_temperature;BME280_humidity;BME280_pressure;Samples;Min_cycle;Max_cycle;Signal;HPM_P1;HPM_P2
2022/01/13 00:01:59;;;;;;;26.77;15.17;;;;;;;0.22;100.00;98566.31;10411680;28;20204;-62
2022/01/13 00:06:59;;;;;;;24.10;13.53;;;;;;;0.33;100.00;98565.09;10411764;28;20181;-62
2022/01/13 00:12:00;;;;;;;25.53;13.80;;;;;;;0.14;100.00;98561.41;10411138;28;20229;-62
2022/01/13 00:22:16;;;;;;;25.40;14.80;;;;;;;0.26;100.00;98557.59;10411318;28;20220;-63
2022/01/13 00:27:17;;;;;;;25.50;12.57;;;;;;;0.30;100.00;98554.03;10411126;28;20192;-61
2022/01/13 00:32:20;;;;;;;24.57;14.13;;;;;;;0.11;100.00;98553.75;10411324;28;20219;-62
2022/01/13 00:37:20;;;;;;;22.47;13.00;;;;;;;0.28;100.00;98558.41;10410789;28;20265;-63
2022/01/13 00:42:22;;;;;;;25.83;13.57;;;;;;;0.23;100.00;98568.84;10410831;28;20212;-61
2022/01/13 00:47:23;;;;;;;28.23;16.83;;;;;;;0.03;100.00;98568.56;10410902;28;20727;-63
2022/01/13 00:52:26;;;;;;;25.87;15.07;;;;;;;0.05;100.00;98551.38;10410657;28;20208;-61
2022/01/13 00:57:28;;;;;;;29.87;16.57;;;;;;;0.06;100.00;98573.63;10410691;28;20304;-61
2022/01/13 01:02:28;;;;;;;32.90;16.60;;;;;;;0.02;100.00;98572.06;10410222;28;20625;-62
2022/01/13 01:07:28;;;;;;;19.23;12.60;;;;;;;0.08;100.00;98577.88;10410499;28;20246;-61
2022/01/13 01:12:31;;;;;;;23.40;12.77;;;;;;;0.06;100.00;98564.19;10410247;28;20239;-61
2022/01/13 01:17:34;;;;;;;21.47;11.50;;;;;;;0.01;100.00;98557.47;10410071;28;20235;-61
2022/01/13 01:27:55;;;;;;;19.77;9.90;;;;;;;-0.02;100.00;98515.44;10417723;28;20185;-62
2022/01/13 01:32:56;;;;;;;20.77;9.97;;;;;;;-0.09;100.00;98511.38;10417324;28;20621;-61
2022/01/13 01:37:56;;;;;;;20.30;8.97;;;;;;;-0.05;100.00;98505.22;10417021;28;20221;-60
2022/01/13 01:42:56;;;;;;;14.13;8.60;;;;;;;-0.10;100.00;98494.22;10416765;28;20272;-61
2022/01/13 01:47:57;;;;;;;20.43;11.57;;;;;;;-0.22;100.00;98486.88;10416749;28;20188;-61
2022/01/13 01:52:57;;;;;;;19.93;11.27;;;;;;;-0.25;100.00;98489.53;10416528;28;20212;-61
2022/01/13 01:57:58;;;;;;;19.33;11.40;;;;;;;-0.26;100.00;98495.56;10415957;28;20752;-61
2022/01/13 02:02:59;;;;;;;19.60;12.53;;;;;;;-0.28;100.00;98492.19;10415471;28;20720;-60
2022/01/13 02:07:59;;;;;;;28.20;14.33;;;;;;;-0.38;100.00;98483.91;10416212;28;20212;-61
2022/01/13 02:13:05;;;;;;;25.13;12.20;;;;;;;-0.45;100.00;98470.34;10415602;28;20278;-61
2022/01/13 02:18:06;;;;;;;23.27;13.37;;;;;;;-0.51;100.00;98467.13;10415737;28;20231;-61
2022/01/13 02:23:07;;;;;;;18.77;11.27;;;;;;;-0.55;100.00;98469.78;10415279;28;20219;-61
2022/01/13 02:28:07;;;;;;;19.60;9.87;;;;;;;-0.60;100.00;98471.66;10415069;28;20550;-61
2022/01/13 02:33:07;;;;;;;19.80;12.47;;;;;;;-0.61;100.00;98482.00;10415209;28;20212;-61
2022/01/13 02:38:11;;;;;;;18.47;11.00;;;;;;;-0.65;100.00;98470.94;10414720;28;20296;-60
2022/01/13 02:43:11;;;;;;;19.53;10.47;;;;;;;-0.70;100.00;98477.94;10414697;28;20311;-60
2022/01/13 02:48:26;;;;;;;19.57;11.83;;;;;;;-0.69;100.00;98466.75;10414471;28;20188;-60
2022/01/13 02:53:26;;;;;;;16.13;10.17;;;;;;;-0.67;100.00;98453.84;10414282;28;20251;-60
2022/01/13 02:58:27;;;;;;;13.33;7.73;;;;;;;-0.65;100.00;98455.47;10413800;28;20250;-60
2022/01/13 03:03:30;;;;;;;15.67;8.57;;;;;;;-0.72;100.00;98449.69;10413514;28;20362;-61
2022/01/13 03:08:30;;;;;;;15.23;8.70;;;;;;;-0.69;100.00;98464.16;10413829;28;20200;-60
2022/01/13 03:13:30;;;;;;;15.07;8.47;;;;;;;-0.74;100.00;98469.44;10414923;28;20707;-62
2022/01/13 03:18:31;;;;;;;12.80;7.27;;;;;;;-0.72;100.00;98480.56;10416815;28;20699;-62
2022/01/13 03:23:32;;;;;;;8.90;5.90;;;;;;;-0.71;100.00;98471.09;10413191;28;20213;-63
2022/01/13 03:28:39;;;;;;;10.13;5.53;;;;;;;-0.70;100.00;98469.34;10412683;28;20203;-61
2022/01/13 03:33:39;;;;;;;13.30;7.80;;;;;;;-0.75;100.00;98475.50;10412743;28;20256;-62
2022/01/13 03:38:40;;;;;;;10.90;5.73;;;;;;;-0.73;100.00;98483.19;10412445;28;20316;-61
2022/01/13 03:43:41;;;;;;;12.00;6.83;;;;;;;-0.69;100.00;98481.34;10412215;28;20212;-61
2022/01/13 03:48:42;;;;;;;11.70;7.53;;;;;;;-0.78;100.00;98485.88;10411987;28;20189;-59
2022/01/13 03:54:07;;;;;;;12.07;6.80;;;;;;;-0.79;100.00;98484.19;10411703;28;20618;-61
2022/01/13 03:59:34;;;;;;;9.93;6.93;;;;;;;-0.79;100.00;98491.06;10411660;28;20243;-60
2022/01/13 04:04:37;;;;;;;15.17;8.17;;;;;;;-0.76;100.00;98481.53;10411372;28;20306;-62
2022/01/13 04:09:40;;;;;;;11.97;6.57;;;;;;;-0.72;100.00;98480.56;10411611;28;20204;-59
2022/01/13 04:19:42;;;;;;;13.30;6.97;;;;;;;-0.73;100.00;98478.03;10329789;28;20229;-60
2022/01/13 04:24:45;;;;;;;11.93;7.33;;;;;;;-0.64;100.00;98494.97;10329697;28;20217;-60
2022/01/13 04:29:48;;;;;;;12.93;7.47;;;;;;;-0.59;100.00;98473.31;10329887;28;20190;-60
2022/01/13 04:34:49;;;;;;;14.43;7.50;;;;;;;-0.54;100.00;98475.78;10328600;28;20309;-65
2022/01/13 04:39:49;;;;;;;11.63;6.40;;;;;;;-0.50;100.00;98461.09;10328699;28;20217;-60
2022/01/13 04:44:49;;;;;;;11.80;8.87;;;;;;;-0.61;100.00;98459.66;10329553;28;20217;-62
2022/01/13 04:49:50;;;;;;;20.33;7.80;;;;;;;-0.59;100.00;98460.47;10329218;28;20201;-60
2022/01/13 04:54:50;;;;;;;13.23;6.93;;;;;;;-0.53;100.00;98454.31;10329276;28;20297;-64
2022/01/13 04:59:50;;;;;;;13.13;6.93;;;;;;;-0.52;100.00;98453.41;10332052;28;20222;-59
2022/01/13 05:04:51;;;;;;;10.73;6.73;;;;;;;-0.43;100.00;98437.72;10336789;28;20271;-60
2022/01/13 05:09:51;;;;;;;13.33;7.13;;;;;;;-0.37;100.00;98452.09;10336949;28;20190;-63
2022/01/13 05:14:55;;;;;;;9.07;5.97;;;;;;;-0.24;100.00;98453.44;10336206;28;20248;-60
2022/01/13 05:20:12;;;;;;;10.93;6.00;;;;;;;-0.25;100.00;98466.34;10336541;28;20225;-59
2022/01/13 05:25:13;;;;;;;11.37;5.87;;;;;;;-0.24;100.00;98457.75;10336182;28;20260;-60
2022/01/13 05:30:18;;;;;;;5.23;3.50;;;;;;;-0.12;100.00;98447.06;10336035;28;20194;-60
2022/01/13 05:35:19;;;;;;;13.03;5.57;;;;;;;0.05;100.00;98458.59;10335669;28;20215;-61
2022/01/13 05:40:20;;;;;;;10.40;6.33;;;;;;;0.05;100.00;98448.28;10335666;28;20224;-59
2022/01/13 05:45:23;;;;;;;13.10;5.07;;;;;;;0.16;100.00;98454.78;10335353;28;20241;-59
2022/01/13 05:50:25;;;;;;;12.00;6.37;;;;;;;0.16;100.00;98465.09;10335008;28;20183;-60
2022/01/13 05:55:25;;;;;;;9.97;4.93;;;;;;;0.26;100.00;98463.09;10334922;28;20220;-59
2022/01/13 06:00:25;;;;;;;9.50;5.87;;;;;;;0.29;100.00;98459.53;10334769;28;20189;-60
2022/01/13 06:05:26;;;;;;;15.43;8.10;;;;;;;0.30;100.00;98454.34;10334816;28;20251;-60
2022/01/13 06:10:26;;;;;;;13.83;6.17;;;;;;;0.27;100.00;98438.13;10334028;28;20255;-59
2022/01/13 06:15:27;;;;;;;13.93;7.20;;;;;;;0.27;100.00;98440.72;10334054;28;20245;-60
2022/01/13 06:20:27;;;;;;;17.10;6.13;;;;;;;0.30;100.00;98440.63;10334185;28;20296;-60
2022/01/13 06:25:27;;;;;;;8.93;4.70;;;;;;;0.25;100.00;98442.50;10333906;28;20647;-61
2022/01/13 06:30:29;;;;;;;19.77;9.07;;;;;;;0.09;100.00;98442.13;10369575;28;20574;-61
2022/01/13 06:35:30;;;;;;;13.13;8.67;;;;;;;0.09;100.00;98447.28;10373658;28;20312;-61
2022/01/13 06:40:30;;;;;;;12.53;7.17;;;;;;;0.08;100.00;98451.63;10373826;28;20189;-63
2022/01/13 06:45:30;;;;;;;14.00;6.13;;;;;;;0.07;100.00;98467.13;10373604;28;20213;-64
2022/01/13 06:50:31;;;;;;;12.43;7.33;;;;;;;0.01;100.00;98455.25;10373586;28;20190;-63
2022/01/13 06:55:31;;;;;;;12.97;5.90;;;;;;;-0.01;100.00;98468.19;10372542;28;20872;-63
2022/01/13 07:00:33;;;;;;;13.80;6.83;;;;;;;0.08;100.00;98476.53;10373097;28;20859;-64
2022/01/13 07:05:33;;;;;;;15.53;8.13;;;;;;;0.07;100.00;98474.84;10372689;28;20244;-63
2022/01/13 07:10:34;;;;;;;22.30;9.37;;;;;;;0.12;100.00;98481.56;10372416;28;20197;-61
2022/01/13 07:15:34;;;;;;;19.20;8.30;;;;;;;0.11;100.00;98490.16;10369647;28;20232;-62
2022/01/13 07:20:34;;;;;;;24.60;7.03;;;;;;;0.16;100.00;98484.88;10371164;28;20197;-63
2022/01/13 07:25:35;;;;;;;21.17;9.03;;;;;;;0.17;100.00;98482.25;10372291;28;20216;-61
2022/01/13 07:30:35;;;;;;;12.57;8.27;;;;;;;0.26;100.00;98473.38;10371708;28;20201;-63
2022/01/13 07:35:35;;;;;;;17.93;8.10;;;;;;;0.17;100.00;98478.84;10365437;28;20225;-60
2022/01/13 07:40:36;;;;;;;24.53;8.43;;;;;;;0.23;100.00;98460.59;10330747;28;20205;-61
2022/01/13 07:45:36;;;;;;;15.70;6.07;;;;;;;0.35;100.00;98451.59;10330828;28;20223;-61
2022/01/13 07:50:36;;;;;;;10.83;6.53;;;;;;;0.44;100.00;98453.06;10330603;28;20198;-60
2022/01/13 07:55:37;;;;;;;14.23;6.67;;;;;;;0.56;100.00;98460.38;10328195;28;20337;-61
2022/01/13 08:00:37;;;;;;;10.70;4.30;;;;;;;0.70;100.00;98468.53;10349976;28;20196;-63
2022/01/13 08:05:38;;;;;;;12.07;6.47;;;;;;;0.91;100.00;98481.56;10366520;28;20224;-60
2022/01/13 08:10:38;;;;;;;6.53;3.23;;;;;;;1.03;100.00;98468.25;10368681;28;20192;-63
2022/01/13 08:15:40;;;;;;;9.60;4.57;;;;;;;1.15;100.00;98468.69;10367220;28;20275;-61
2022/01/13 08:20:40;;;;;;;10.93;3.43;;;;;;;1.19;100.00;98481.44;10368866;28;20203;-64
2022/01/13 08:25:41;;;;;;;21.67;6.60;;;;;;;1.24;100.00;98482.16;10368170;28;20788;-63
2022/01/13 08:30:41;;;;;;;13.93;5.77;;;;;;;1.28;100.00;98500.94;10368543;28;20189;-61
2022/01/13 08:35:43;;;;;;;14.23;6.10;;;;;;;1.22;100.00;98498.56;10373309;28;20592;-59
2022/01/13 08:40:45;;;;;;;10.47;5.10;;;;;;;1.32;100.00;98484.44;10376577;28;20200;-60
2022/01/13 08:45:46;;;;;;;14.10;6.50;;;;;;;1.08;100.00;98505.97;10376504;28;20741;-64
2022/01/13 08:50:47;;;;;;;16.00;6.77;;;;;;;1.18;100.00;98513.34;10376699;28;20275;-63
2022/01/13 08:55:48;;;;;;;19.30;6.40;;;;;;;1.16;100.00;98502.19;10375589;28;20307;-60
2022/01/13 09:00:49;;;;;;;18.77;6.20;;;;;;;1.11;100.00;98492.97;10375382;28;20303;-64
2022/01/13 09:05:49;;;;;;;25.47;7.57;;;;;;;1.16;100.00;98507.38;10375772;28;20274;-61
2022/01/13 09:10:50;;;;;;;17.63;6.80;;;;;;;1.20;100.00;98527.03;10376181;28;20191;-64
2022/01/13 09:15:57;;;;;;;16.80;6.47;;;;;;;1.31;100.00;98525.81;10374516;28;21017;-64
2022/01/13 09:20:58;;;;;;;15.37;6.23;;;;;;;1.48;100.00;98513.13;10372218;28;20206;-64
2022/01/13 09:25:58;;;;;;;18.13;6.60;;;;;;;1.69;100.00;98480.50;10370591;28;20211;-63
2022/01/13 09:30:58;;;;;;;16.67;6.50;;;;;;;1.85;100.00;98485.09;10371863;28;20197;-64
2022/01/13 09:35:59;;;;;;;14.47;6.00;;;;;;;1.71;100.00;98490.78;10372141;28;20252;-63
2022/01/13 09:41:01;;;;;;;8.67;4.63;;;;;;;1.98;100.00;98490.66;10374620;28;20288;-64
2022/01/13 09:46:01;;;;;;;10.30;4.07;;;;;;;2.11;100.00;98490.13;10373615;28;20229;-63
2022/01/13 09:51:01;;;;;;;4.97;3.13;;;;;;;2.29;100.00;98477.38;10361870;28;20232;-61
2022/01/13 09:56:03;;;;;;;9.37;4.33;;;;;;;2.67;100.00;98459.44;10335175;28;20722;-64
2022/01/13 10:01:04;;;;;;;7.13;3.80;;;;;;;3.34;100.00;98447.13;10367472;28;20189;-64
2022/01/13 10:06:10;;;;;;;8.80;4.53;;;;;;;3.52;100.00;98442.84;10337582;28;20218;-60
2022/01/13 10:11:25;;;;;;;8.73;3.63;;;;;;;3.41;100.00;98452.84;10354152;28;20204;-64
2022/01/13 10:16:26;;;;;;;13.33;4.63;;;;;;;3.28;100.00;98442.16;10335116;28;20226;-63
2022/01/13 10:21:27;;;;;;;10.80;4.23;;;;;;;3.36;100.00;98430.56;10365026;28;20687;-63
2022/01/13 10:26:28;;;;;;;5.60;3.27;;;;;;;3.39;100.00;98424.41;10370550;28;20259;-61
2022/01/13 10:31:50;;;;;;;8.17;4.47;;;;;;;3.34;100.00;98421.22;10370944;28;20185;-62
2022/01/13 10:37:33;;;;;;;9.07;3.73;;;;;;;3.37;100.00;98406.34;10369311;28;20613;-62
2022/01/13 10:47:40;;;;;;;7.60;3.13;;;;;;;4.43;100.00;98423.00;10370171;28;21039;-63
2022/01/13 10:52:41;;;;;;;7.63;3.20;;;;;;;4.78;100.00;98412.63;10369336;28;20252;-63
2022/01/13 10:57:43;;;;;;;7.33;3.83;;;;;;;4.83;100.00;98395.03;10343471;28;20774;-64
2022/01/13 11:02:43;;;;;;;7.40;3.33;;;;;;;5.85;100.00;98387.03;10356313;28;20579;-61
2022/01/13 11:07:44;;;;;;;13.77;4.37;;;;;;;5.39;100.00;98402.53;10368261;28;20262;-63
2022/01/13 11:12:49;;;;;;;9.03;3.80;;;;;;;5.77;100.00;98394.41;10368500;28;20193;-64
2022/01/13 11:17:49;;;;;;;6.07;2.50;;;;;;;5.30;100.00;98389.13;10367979;28;20229;-63
2022/01/13 11:22:52;;;;;;;8.57;3.33;;;;;;;4.31;100.00;98416.66;10368729;28;20196;-62
2022/01/13 11:27:54;;;;;;;7.17;3.33;;;;;;;4.54;100.00;98410.34;10367769;28;20686;-63
2022/01/13 11:32:56;;;;;;;10.03;3.30;;;;;;;4.73;100.00;98422.38;10367613;28;20270;-63
2022/01/13 11:37:57;;;;;;;9.27;4.03;;;;;;;4.50;100.00;98413.16;10366815;28;20224;-63
2022/01/13 11:42:59;;;;;;;4.23;2.80;;;;;;;4.35;100.00;98422.53;10367683;28;20224;-63
2022/01/13 11:48:21;;;;;;;10.63;3.80;;;;;;;4.55;100.00;98408.56;10367844;28;20211;-61
2022/01/13 11:53:24;;;;;;;9.83;3.53;;;;;;;4.34;100.00;98408.72;10367980;28;20209;-63
2022/01/13 11:58:31;;;;;;;6.27;3.30;;;;;;;4.22;100.00;98407.56;10367343;28;20244;-63
2022/01/13 12:03:33;;;;;;;9.40;3.73;;;;;;;4.21;100.00;98418.88;10366837;28;20213;-63
2022/01/13 12:08:45;;;;;;;10.87;3.17;;;;;;;4.23;100.00;98401.47;10366122;28;20280;-63
2022/01/13 12:13:46;;;;;;;7.55;3.90;;;;;;;4.32;100.00;98396.75;10366276;28;20469;-63
2022/01/13 12:18:57;;;;;;;8.63;3.80;;;;;;;4.14;100.00;98395.91;10364447;28;20680;-63
2022/01/13 12:24:00;;;;;;;10.30;3.63;;;;;;;4.02;100.00;98386.97;10361234;28;20765;-62
2022/01/13 12:29:28;;;;;;;5.97;2.90;;;;;;;3.93;100.00;98376.09;10364261;28;20189;-61
2022/01/13 12:34:28;;;;;;;6.67;3.00;;;;;;;4.13;100.00;98370.88;10365582;28;20217;-62
2022/01/13 12:39:28;;;;;;;7.13;3.80;;;;;;;4.01;100.00;98362.78;10371507;28;20220;-62
2022/01/13 12:49:48;;;;;;;18.73;8.00;;;;;;;3.65;100.00;98348.06;10366042;28;20189;-62
2022/01/13 12:54:50;;;;;;;10.37;4.40;;;;;;;3.83;100.00;98329.94;10365694;28;20694;-61
2022/01/13 12:59:57;;;;;;;6.10;3.53;;;;;;;3.85;100.00;98323.78;10366201;28;20267;-62
2022/01/13 13:04:57;;;;;;;10.80;4.33;;;;;;;3.70;100.00;98320.19;10365793;28;20228;-62
2022/01/13 13:10:06;;;;;;;11.27;6.23;;;;;;;3.66;100.00;98312.63;10366057;28;20190;-62
2022/01/13 13:20:32;;;;;;;8.80;3.17;;;;;;;3.78;100.00;98311.19;10366083;28;20416;-63
2022/01/13 13:25:41;;;;;;;6.80;2.60;;;;;;;3.76;100.00;98313.88;10368621;28;20464;-62
2022/01/13 13:30:46;;;;;;;8.87;3.47;;;;;;;3.66;100.00;98308.31;10370310;28;20190;-62
2022/01/13 13:35:46;;;;;;;10.97;3.80;;;;;;;3.77;100.00;98325.06;10367245;28;20216;-61
2022/01/13 13:40:47;;;;;;;9.80;3.77;;;;;;;3.85;100.00;98317.78;10369336;28;20194;-63
2022/01/13 13:45:58;;;;;;;7.80;2.67;;;;;;;3.79;100.00;98318.91;10368030;28;20217;-62
2022/01/13 13:50:59;;;;;;;6.63;2.63;;;;;;;3.89;100.00;98317.53;10371650;28;20568;-61
2022/01/13 13:56:02;;;;;;;8.37;2.70;;;;;;;3.89;100.00;98314.09;10371963;28;20220;-63
2022/01/13 14:01:07;;;;;;;8.17;3.20;;;;;;;3.86;100.00;98315.09;10371517;28;20194;-63
2022/01/13 14:06:07;;;;;;;4.10;2.70;;;;;;;3.80;100.00;98314.53;10372992;28;20779;-62
2022/01/13 14:11:08;;;;;;;4.90;3.07;;;;;;;3.78;100.00;98303.44;10372092;28;20280;-63
2022/01/13 14:16:09;;;;;;;4.97;2.60;;;;;;;3.84;100.00;98306.53;10372104;28;20271;-62
2022/01/13 14:21:09;;;;;;;6.13;2.70;;;;;;;3.89;100.00;98303.72;10371379;28;20197;-62
2022/01/13 14:26:11;;;;;;;3.77;2.30;;;;;;;3.96;100.00;98293.91;10371806;28;20300;-62
2022/01/13 14:31:12;;;;;;;4.23;1.70;;;;;;;4.09;100.00;98306.19;10372295;28;20186;-59
2022/01/13 14:36:23;;;;;;;4.23;1.60;;;;;;;4.21;100.00;98284.00;10370860;28;20786;-62
2022/01/13 14:41:26;;;;;;;4.53;2.53;;;;;;;4.26;100.00;98292.38;10371732;28;20193;-63
2022/01/13 14:46:27;;;;;;;2.13;1.77;;;;;;;4.25;100.00;98287.25;10371246;28;20220;-63
2022/01/13 14:51:27;;;;;;;7.20;2.27;;;;;;;4.25;100.00;98298.47;10370662;28;20209;-61
2022/01/13 14:56:28;;;;;;;7.83;2.70;;;;;;;4.21;100.00;98293.50;10369926;28;20287;-62
2022/01/13 15:01:28;;;;;;;4.37;2.00;;;;;;;4.23;100.00;98287.34;10370339;28;20304;-64
2022/01/13 15:06:29;;;;;;;5.43;2.47;;;;;;;4.21;100.00;98284.00;10370799;28;20211;-63
2022/01/13 15:11:30;;;;;;;5.43;2.00;;;;;;;4.15;100.00;98279.13;10369082;28;20189;-63
2022/01/13 15:16:30;;;;;;;6.37;3.10;;;;;;;3.98;100.00;98279.97;10369989;28;20670;-63
2022/01/13 15:21:32;;;;;;;36.97;13.80;;;;;;;3.97;100.00;98275.69;10366051;28;20197;-61
2022/01/13 15:26:32;;;;;;;24.30;11.37;;;;;;;3.98;100.00;98271.34;10367118;28;20208;-63
2022/01/13 15:31:33;;;;;;;6.23;3.43;;;;;;;3.95;100.00;98277.53;10366778;28;20201;-61
2022/01/13 15:36:34;;;;;;;4.83;3.33;;;;;;;3.93;100.00;98272.38;10367233;28;20687;-62
2022/01/13 15:41:36;;;;;;;8.73;4.70;;;;;;;3.96;100.00;98263.63;10365374;28;20195;-62
2022/01/13 15:46:36;;;;;;;6.13;2.70;;;;;;;3.96;100.00;98262.81;10366462;28;20201;-63
2022/01/13 15:51:36;;;;;;;4.57;2.50;;;;;;;3.99;100.00;98267.84;10367159;28;20186;-64
2022/01/13 15:56:37;;;;;;;13.43;6.37;;;;;;;4.04;100.00;98276.22;10363750;28;20212;-63
2022/01/13 16:01:37;;;;;;;6.77;4.60;;;;;;;3.98;100.00;98274.78;10367173;28;20201;-61
2022/01/13 16:06:37;;;;;;;10.40;5.27;;;;;;;3.88;100.00;98269.19;10368882;28;20778;-63
2022/01/13 16:11:38;;;;;;;5.47;2.80;;;;;;;3.77;100.00;98274.09;10369116;28;20633;-61
2022/01/13 16:16:38;;;;;;;5.93;3.60;;;;;;;3.72;100.00;98274.31;10403790;22;20659;-64
2022/01/13 16:21:39;;;;;;;3.83;3.30;;;;;;;3.72;100.00;98270.84;10373026;28;20615;-61
2022/01/13 16:26:39;;;;;;;3.70;2.33;;;;;;;3.77;100.00;98271.50;10400571;28;20208;-61
2022/01/13 16:31:40;;;;;;;5.00;2.93;;;;;;;3.87;100.00;98267.50;10407061;28;20185;-62
2022/01/13 16:36:40;;;;;;;6.47;2.90;;;;;;;3.87;100.00;98274.47;10408005;28;20221;-63
2022/01/13 16:41:41;;;;;;;8.17;2.60;;;;;;;3.90;100.00;98282.91;10406322;28;20192;-62
2022/01/13 16:46:41;;;;;;;4.33;2.53;;;;;;;3.85;100.00;98281.47;10407132;28;20219;-62
2022/01/13 16:51:41;;;;;;;4.87;2.50;;;;;;;3.82;100.00;98285.06;10407892;28;20279;-63
2022/01/13 16:56:42;;;;;;;4.87;2.80;;;;;;;3.83;100.00;98286.75;10413448;28;20216;-63
2022/01/13 17:01:42;;;;;;;5.77;2.90;;;;;;;3.89;100.00;98290.75;10414066;28;20192;-62
2022/01/13 17:06:44;;;;;;;3.07;2.27;;;;;;;3.88;100.00;98286.50;10418382;28;20243;-64
2022/01/13 17:11:44;;;;;;;6.60;3.13;;;;;;;3.80;100.00;98292.06;10418431;28;20551;-64
2022/01/13 17:16:45;;;;;;;3.43;2.30;;;;;;;3.97;100.00;98277.44;10417869;28;20236;-63
2022/01/13 17:21:45;;;;;;;2.97;2.33;;;;;;;3.90;100.00;98282.09;10418506;28;20188;-63
2022/01/13 17:26:47;;;;;;;5.07;2.50;;;;;;;3.87;100.00;98285.66;10414436;28;20220;-64
2022/01/13 17:31:47;;;;;;;4.80;2.20;;;;;;;3.81;100.00;98296.31;10414904;28;20195;-62
2022/01/13 17:36:48;;;;;;;4.03;2.33;;;;;;;3.84;100.00;98298.78;10415211;28;20228;-63
2022/01/13 17:41:50;;;;;;;5.27;2.50;;;;;;;3.70;100.00;98308.97;10415507;28;20230;-62
2022/01/13 17:46:51;;;;;;;3.40;2.40;;;;;;;3.53;100.00;98313.22;10417005;28;20212;-63
2022/01/13 17:51:51;;;;;;;6.47;2.93;;;;;;;3.57;100.00;98312.16;10415529;28;20199;-64
2022/01/13 17:56:52;;;;;;;5.50;3.30;;;;;;;3.55;100.00;98306.22;10416085;28;20237;-61
2022/01/13 18:01:52;;;;;;;9.23;4.80;;;;;;;3.45;100.00;98306.72;10415958;28;20193;-63
2022/01/13 18:06:54;;;;;;;6.87;3.33;;;;;;;3.49;100.00;98303.94;10415563;28;20232;-64
2022/01/13 18:11:54;;;;;;;4.17;2.83;;;;;;;3.58;100.00;98300.03;10415392;28;20204;-62
2022/01/13 18:16:54;;;;;;;4.53;2.43;;;;;;;3.72;100.00;98286.41;10411731;28;20595;-62
2022/01/13 18:21:55;;;;;;;4.73;2.80;;;;;;;3.85;100.00;98290.09;10415344;28;20206;-62
2022/01/13 18:26:55;;;;;;;3.90;2.67;;;;;;;3.85;100.00;98287.50;10414693;28;20219;-63
2022/01/13 18:31:57;;;;;;;4.83;2.60;;;;;;;3.85;100.00;98277.13;10414538;28;20201;-63
2022/01/13 18:36:57;;;;;;;6.23;2.60;;;;;;;3.92;100.00;98277.66;10414394;28;20217;-64
2022/01/13 18:41:58;;;;;;;3.73;2.80;;;;;;;3.94;100.00;98268.06;10414069;28;20189;-62
2022/01/13 18:47:01;;;;;;;5.17;2.90;;;;;;;3.92;100.00;98264.69;10414051;28;20212;-62
2022/01/13 18:52:01;;;;;;;5.53;4.33;;;;;;;4.00;100.00;98259.16;10413138;28;20220;-61
2022/01/13 18:57:02;;;;;;;7.30;2.73;;;;;;;4.09;100.00;98248.31;10414052;28;20306;-62
2022/01/13 19:02:02;;;;;;;3.67;3.27;;;;;;;3.97;100.00;98260.13;10413348;28;20671;-63
2022/01/13 19:07:03;;;;;;;8.40;3.53;;;;;;;3.88;100.00;98251.06;10413440;28;20212;-64
2022/01/13 19:12:04;;;;;;;5.47;3.80;;;;;;;3.88;100.00;98253.66;10413094;28;20303;-62
2022/01/13 19:17:09;;;;;;;6.57;3.63;;;;;;;3.79;100.00;98261.88;10411194;28;20224;-64
2022/01/13 19:22:10;;;;;;;6.73;3.40;;;;;;;3.69;100.00;98256.31;10412755;28;20204;-63
2022/01/13 19:27:11;;;;;;;7.33;3.90;;;;;;;3.64;100.00;98254.84;10412117;28;20212;-62
2022/01/13 19:32:12;;;;;;;5.70;3.40;;;;;;;3.55;100.00;98251.81;10411419;28;20264;-63
2022/01/13 19:37:17;;;;;;;5.60;3.60;;;;;;;3.51;100.00;98252.88;10411846;28;20311;-63
2022/01/13 19:42:18;;;;;;;8.97;4.37;;;;;;;3.42;100.00;98249.88;10411905;28;20299;-63
2022/01/13 19:47:19;;;;;;;8.03;4.80;;;;;;;3.28;100.00;98260.88;10411397;28;20404;-61
2022/01/13 19:52:20;;;;;;;8.50;4.10;;;;;;;3.28;100.00;98261.72;10410812;28;20193;-62
2022/01/13 19:57:23;;;;;;;6.63;4.23;;;;;;;3.28;100.00;98260.88;10410951;28;20714;-63
2022/01/13 20:02:26;;;;;;;6.87;3.90;;;;;;;3.24;100.00;98256.78;10410497;28;20193;-60
2022/01/13 20:07:26;;;;;;;6.10;3.43;;;;;;;3.19;100.00;98252.63;10408400;28;20334;-62
2022/01/13 20:12:29;;;;;;;7.70;4.70;;;;;;;3.09;100.00;98253.97;10410977;28;20188;-64
2022/01/13 20:17:31;;;;;;;5.80;3.53;;;;;;;3.13;100.00;98241.75;10409693;28;20810;-61
2022/01/13 20:22:32;;;;;;;5.43;3.73;;;;;;;3.06;100.00;98238.59;10410587;28;20188;-64
2022/01/13 20:27:32;;;;;;;7.27;4.20;;;;;;;3.03;100.00;98242.19;10410116;28;20578;-64
2022/01/13 20:32:33;;;;;;;6.57;4.17;;;;;;;3.07;100.00;98242.03;10409793;28;20688;-63
2022/01/13 20:37:33;;;;;;;6.17;3.70;;;;;;;3.01;100.00;98237.97;10410388;28;20255;-63
2022/01/13 20:42:34;;;;;;;7.20;4.27;;;;;;;2.97;100.00;98237.28;10409425;28;20200;-63
2022/01/13 20:47:34;;;;;;;6.40;3.80;;;;;;;2.91;100.00;98222.03;10408612;28;20213;-64
2022/01/13 20:52:34;;;;;;;5.47;3.60;;;;;;;3.00;100.00;98219.03;10408123;28;20196;-62
2022/01/13 20:57:35;;;;;;;8.67;4.33;;;;;;;3.09;100.00;98204.78;10408736;28;20270;-63
2022/01/13 21:02:36;;;;;;;6.73;3.87;;;;;;;2.97;100.00;98211.41;10408861;28;20184;-62
2022/01/13 21:07:36;;;;;;;5.30;3.67;;;;;;;2.97;100.00;98210.53;10408421;28;20208;-63
2022/01/13 21:12:38;;;;;;;7.83;4.20;;;;;;;2.95;100.00;98205.44;10409338;28;20203;-63
2022/01/13 21:17:39;;;;;;;6.23;3.60;;;;;;;2.94;100.00;98197.75;10408751;28;20232;-62
2022/01/13 21:22:39;;;;;;;6.83;3.87;;;;;;;2.88;100.00;98198.03;10409510;28;20196;-62
2022/01/13 21:27:40;;;;;;;6.33;4.07;;;;;;;2.82;100.00;98197.41;10409533;28;20299;-62
2022/01/13 21:32:41;;;;;;;6.00;3.83;;;;;;;2.76;100.00;98189.94;10409497;28;20254;-63
2022/01/13 21:37:43;;;;;;;9.93;4.07;;;;;;;2.76;100.00;98184.75;10409569;28;20216;-59
2022/01/13 21:42:47;;;;;;;5.73;3.80;;;;;;;2.70;100.00;98171.28;10413884;28;20201;-62
2022/01/13 21:47:49;;;;;;;7.17;4.60;;;;;;;2.77;100.00;98170.06;10416518;28;20227;-62
2022/01/13 21:52:49;;;;;;;6.37;4.30;;;;;;;2.75;100.00;98159.78;10416385;28;20223;-62
2022/01/13 21:57:50;;;;;;;5.93;4.30;;;;;;;2.69;100.00;98147.13;10415943;28;20246;-63
2022/01/13 22:02:53;;;;;;;9.73;4.47;;;;;;;2.72;100.00;98136.63;10416323;28;20198;-63
2022/01/13 22:07:59;;;;;;;8.50;4.37;;;;;;;2.73;100.00;98133.16;10415523;28;20292;-63
2022/01/13 22:13:00;;;;;;;7.37;4.03;;;;;;;2.68;100.00;98135.97;10415827;28;20184;-61
2022/01/13 22:18:00;;;;;;;7.10;3.57;;;;;;;2.66;100.00;98135.19;10420214;22;20245;-63
2022/01/13 22:23:02;;;;;;;6.83;4.13;;;;;;;2.65;100.00;98132.69;10374167;28;20209;-64
2022/01/13 22:28:03;;;;;;;8.33;4.70;;;;;;;2.63;100.00;98135.34;10374547;28;20217;-61
2022/01/13 22:33:03;;;;;;;6.27;4.53;;;;;;;2.55;100.00;98132.25;10373485;28;20200;-63
2022/01/13 22:38:04;;;;;;;9.10;5.00;;;;;;;2.57;100.00;98135.59;10374041;28;20587;-64
2022/01/13 22:43:04;;;;;;;8.20;4.93;;;;;;;2.50;100.00;98127.28;10373738;28;20675;-62
2022/01/13 22:48:05;;;;;;;8.97;4.83;;;;;;;2.49;100.00;98117.03;10373408;28;20710;-63
2022/01/13 22:53:05;;;;;;;9.80;5.57;;;;;;;2.49;100.00;98128.19;10373603;28;20225;-63
2022/01/13 22:58:07;;;;;;;6.17;4.30;;;;;;;2.41;100.00;98117.38;10372695;28;20240;-62
2022/01/13 23:03:07;;;;;;;6.87;4.87;;;;;;;2.42;100.00;98120.78;10373195;28;20201;-61
2022/01/13 23:08:08;;;;;;;9.57;5.10;;;;;;;2.36;100.00;98111.59;10372439;28;20578;-61
2022/01/13 23:13:10;;;;;;;8.73;4.90;;;;;;;2.33;100.00;98109.16;10372340;28;20197;-61
2022/01/13 23:23:29;;;;;;;10.77;6.13;;;;;;;2.06;100.00;98106.06;10371916;28;20193;-63
2022/01/13 23:28:29;;;;;;;10.57;5.93;;;;;;;2.08;100.00;98109.41;10371759;28;20208;-61
2022/01/13 23:33:30;;;;;;;9.73;5.50;;;;;;;2.02;100.00;98102.78;10371637;28;20204;-62
2022/01/13 23:38:30;;;;;;;9.50;5.10;;;;;;;1.95;100.00;98097.03;10371496;28;20221;-60
2022/01/13 23:43:34;;;;;;;9.70;5.23;;;;;;;1.93;100.00;98100.59;10371538;28;20656;-64
2022/01/13 23:48:35;;;;;;;9.50;6.03;;;;;;;1.83;100.00;98101.91;10371102;28;20205;-63